createdAt,value
2022-11-26T00:02:26.543Z,117.20
2022-11-26T00:04:56.756Z,118.80
2022-11-26T00:07:29.326Z,111.00
2022-11-26T00:09:59.698Z,111.10
2022-11-26T00:12:32.163Z,102.20
2022-11-26T00:15:11.213Z,113.30
2022-11-26T00:17:38.999Z,121.60
2022-11-26T00:20:08.102Z,113.80
2022-11-26T00:22:41.949Z,113.20
2022-11-26T00:25:26.399Z,108.30
2022-11-26T00:27:58.253Z,115.70
2022-11-26T00:30:28.442Z,111.60
2022-11-26T00:32:56.372Z,105.60
2022-11-26T00:35:25.273Z,107.50
2022-11-26T00:37:57.219Z,108.80
2022-11-26T00:40:28.280Z,105.80
2022-11-26T00:43:01.669Z,107.80
2022-11-26T00:45:31.548Z,105.60
2022-11-26T00:48:01.956Z,103.80
2022-11-26T00:50:37.698Z,104.60
2022-11-26T00:53:08.315Z,101.20
2022-11-26T00:55:40.356Z,98.80
2022-11-26T00:58:21.825Z,108.90
2022-11-26T01:00:49.704Z,97.50
2022-11-26T01:03:18.775Z,105.50
2022-11-26T01:05:53.194Z,95.50
2022-11-26T01:08:27.579Z,95.10
2022-11-26T01:10:55.512Z,93.50
2022-11-26T01:13:24.312Z,94.80
2022-11-26T01:15:56.377Z,92.00
2022-11-26T01:18:25.162Z,90.30
2022-11-26T01:20:52.921Z,93.20
2022-11-26T01:23:20.990Z,93.20
2022-11-26T01:25:48.802Z,92.10
2022-11-26T01:28:20.045Z,93.50
2022-11-26T01:30:47.836Z,92.60
2022-11-26T01:33:15.793Z,87.00
2022-11-26T01:35:44.296Z,88.10
2022-11-26T01:38:16.294Z,85.60
2022-11-26T01:40:56.224Z,80.90
2022-11-26T01:43:33.683Z,86.50
2022-11-26T01:46:02.093Z,82.00
2022-11-26T01:48:34.468Z,84.00
2022-11-26T01:51:04.226Z,73.10
2022-11-26T01:53:46.250Z,70.30
2022-11-26T01:56:24.938Z,81.20
2022-11-26T01:58:59.033Z,76.00
2022-11-26T02:01:30.312Z,73.90
2022-11-26T02:04:14.380Z,72.30
2022-11-26T02:09:13.169Z,74.90
2022-11-26T02:11:41.960Z,76.50
2022-11-26T02:14:24.150Z,75.90
2022-11-26T02:17:26.040Z,74.10
2022-11-26T02:20:17.992Z,73.80
2022-11-26T02:22:55.036Z,73.90
2022-11-26T02:25:51.047Z,71.30
2022-11-26T02:28:50.553Z,71.40
2022-11-26T02:31:44.183Z,69.60
2022-11-26T02:34:38.014Z,66.50
2022-11-26T02:37:13.283Z,64.10
2022-11-26T02:39:41.337Z,62.00
2022-11-26T02:42:31.107Z,68.10
2022-11-26T02:45:06.139Z,65.10
2022-11-26T02:47:38.095Z,62.90
2022-11-26T02:50:12.589Z,58.80
2022-11-26T02:52:43.262Z,57.10
2022-11-26T02:55:15.649Z,61.40
2022-11-26T02:57:49.118Z,57.30
2022-11-26T03:00:18.127Z,56.90
2022-11-26T03:03:02.330Z,59.60
2022-11-26T03:05:37.189Z,55.60
2022-11-26T03:08:07.514Z,53.20
2022-11-26T03:10:35.972Z,58.10
2022-11-26T03:13:03.785Z,52.20
2022-11-26T03:15:31.542Z,56.90
2022-11-26T03:17:59.304Z,54.80
2022-11-26T03:20:27.060Z,58.30
2022-11-26T03:22:54.953Z,55.10
2022-11-26T03:25:23.456Z,52.60
2022-11-26T03:27:51.189Z,52.20
2022-11-26T03:30:19.117Z,52.00
2022-11-26T03:32:47.088Z,50.00
2022-11-26T03:35:14.817Z,51.60
2022-11-26T03:37:42.643Z,56.80
2022-11-26T03:40:11.312Z,54.00
2022-11-26T03:42:39.326Z,53.40
2022-11-26T03:45:08.297Z,54.60
2022-11-26T03:47:36.301Z,52.00
2022-11-26T03:50:06.871Z,52.10
2022-11-26T03:52:34.652Z,51.70
2022-11-26T03:55:02.484Z,53.10
2022-11-26T03:57:30.455Z,51.60
2022-11-26T03:59:58.220Z,51.40
2022-11-26T04:02:25.946Z,52.30
2022-11-26T04:04:55.199Z,51.30
2022-11-26T04:07:23.041Z,47.60
2022-11-26T04:09:51.410Z,48.10
2022-11-26T04:12:19.189Z,53.00
2022-11-26T04:14:46.918Z,49.40
2022-11-26T04:17:14.644Z,47.50
2022-11-26T04:19:42.635Z,45.80
2022-11-26T04:22:10.475Z,45.40
2022-11-26T04:24:38.442Z,50.90
2022-11-26T04:27:06.856Z,43.80
2022-11-26T04:29:36.963Z,47.00
2022-11-26T04:32:06.049Z,44.40
2022-11-26T04:34:34.264Z,45.90
2022-11-26T04:37:02.127Z,43.10
2022-11-26T04:39:29.952Z,44.70
2022-11-26T04:41:57.751Z,44.80
2022-11-26T04:44:27.625Z,44.20
2022-11-26T04:46:55.853Z,43.00
2022-11-26T04:49:23.682Z,41.40
2022-11-26T04:51:51.666Z,43.70
2022-11-26T04:54:19.612Z,43.00
2022-11-26T04:56:47.576Z,40.50
2022-11-26T04:59:16.134Z,41.80
2022-11-26T05:01:44.015Z,44.40
2022-11-26T05:04:11.831Z,38.20
2022-11-26T05:06:39.570Z,41.00
2022-11-26T05:09:07.303Z,39.00
2022-11-26T05:11:35.027Z,37.20
2022-11-26T05:14:02.814Z,38.80
2022-11-26T05:16:30.663Z,40.00
2022-11-26T05:18:58.465Z,38.50
2022-11-26T05:21:26.235Z,40.20
2022-11-26T05:23:53.963Z,40.20
2022-11-26T05:26:21.713Z,39.70
2022-11-26T05:28:49.509Z,41.70
2022-11-26T05:31:18.225Z,38.80
2022-11-26T05:33:46.302Z,43.10
2022-11-26T05:36:14.954Z,44.00
2022-11-26T05:38:42.982Z,42.30
2022-11-26T05:41:10.962Z,42.30
2022-11-26T05:43:39.379Z,38.20
2022-11-26T05:46:10.381Z,44.40
2022-11-26T05:48:38.647Z,38.10
2022-11-26T05:51:06.497Z,39.60
2022-11-26T05:53:35.438Z,42.10
2022-11-26T05:56:03.270Z,40.40
2022-11-26T05:58:31.158Z,38.80
2022-11-26T06:00:59.110Z,39.00
2022-11-26T06:03:28.453Z,40.80
2022-11-26T06:05:57.552Z,39.70
2022-11-26T06:08:25.316Z,40.90
2022-11-26T06:10:53.342Z,38.30
2022-11-26T06:13:21.133Z,41.00
2022-11-26T06:15:48.871Z,42.20
2022-11-26T06:18:18.705Z,39.00
2022-11-26T06:20:46.456Z,36.80
2022-11-26T06:23:14.997Z,40.60
2022-11-26T06:25:44.654Z,41.70
2022-11-26T06:28:12.666Z,37.70
2022-11-26T06:30:40.619Z,37.50
2022-11-26T06:33:09.991Z,38.00
2022-11-26T06:35:37.930Z,40.10
2022-11-26T06:38:06.271Z,36.30
2022-11-26T06:40:34.047Z,36.10
2022-11-26T06:43:01.901Z,36.60
2022-11-26T06:45:29.629Z,37.90
2022-11-26T06:47:57.433Z,34.60
2022-11-26T06:50:25.225Z,35.50
2022-11-26T06:52:55.036Z,35.90
2022-11-26T06:55:23.627Z,36.70
2022-11-26T06:57:53.056Z,35.70
2022-11-26T07:00:23.331Z,35.60
2022-11-26T07:02:51.181Z,38.50
2022-11-26T07:05:19.120Z,35.20
2022-11-26T07:07:46.917Z,36.60
2022-11-26T07:10:14.723Z,36.50
2022-11-26T07:12:42.499Z,31.90
2022-11-26T07:15:10.692Z,38.50
2022-11-26T07:17:38.598Z,38.40
2022-11-26T07:20:07.085Z,33.90
2022-11-26T07:22:36.265Z,37.30
2022-11-26T07:25:12.147Z,37.30
2022-11-26T07:27:41.795Z,33.80
2022-11-26T07:30:12.015Z,35.80
2022-11-26T07:32:39.915Z,39.80
2022-11-26T07:35:07.778Z,41.40
2022-11-26T07:37:35.640Z,44.50
2022-11-26T07:40:06.713Z,43.40
2022-11-26T07:42:36.069Z,43.00
2022-11-26T07:45:04.781Z,41.10
2022-11-26T07:47:32.650Z,41.80
2022-11-26T07:50:00.553Z,41.10
2022-11-26T07:52:28.331Z,40.30
2022-11-26T07:54:56.181Z,40.20
2022-11-26T07:57:26.344Z,40.90
2022-11-26T07:59:54.154Z,45.90
2022-11-26T08:02:21.984Z,38.90
2022-11-26T08:04:50.077Z,41.60
2022-11-26T08:07:24.334Z,39.60
2022-11-26T08:09:57.620Z,41.10
2022-11-26T08:12:25.536Z,41.30
2022-11-26T08:14:53.312Z,40.00
2022-11-26T08:17:21.074Z,41.10
2022-11-26T08:19:48.810Z,42.50
2022-11-26T08:22:16.566Z,45.90
2022-11-26T08:24:45.633Z,43.00
2022-11-26T08:27:16.521Z,42.50
2022-11-26T08:29:44.574Z,40.70
2022-11-26T08:32:12.332Z,43.00
2022-11-26T08:34:40.432Z,40.30
2022-11-26T08:37:09.845Z,41.50
2022-11-26T08:39:37.687Z,40.70
2022-11-26T08:42:05.522Z,40.40
2022-11-26T08:44:33.289Z,40.60
2022-11-26T08:47:01.049Z,39.80
2022-11-26T08:49:28.809Z,37.50
2022-11-26T08:51:58.146Z,36.90
2022-11-26T08:54:25.942Z,34.90
2022-11-26T08:56:56.072Z,38.40
2022-11-26T08:59:24.778Z,37.70
2022-11-26T09:01:52.791Z,34.70
2022-11-26T09:04:20.693Z,36.20
2022-11-26T09:06:48.719Z,35.40
2022-11-26T09:09:19.126Z,35.60
2022-11-26T09:11:58.018Z,36.00
2022-11-26T09:14:30.758Z,34.00
2022-11-26T09:16:58.713Z,26.10
2022-11-26T09:19:28.597Z,33.10
2022-11-26T09:21:56.636Z,33.10
2022-11-26T09:24:27.290Z,34.60
2022-11-26T09:26:55.173Z,33.60
2022-11-26T09:29:24.783Z,33.30
2022-11-26T09:32:21.945Z,34.20
2022-11-26T09:34:42.583Z,34.30
2022-11-26T09:37:11.799Z,32.30
2022-11-26T09:39:41.251Z,36.20
2022-11-26T09:42:30.394Z,34.20
2022-11-26T09:45:12.553Z,36.40
2022-11-26T09:47:52.424Z,36.60
2022-11-26T09:50:35.461Z,32.50
2022-11-26T09:53:32.009Z,36.00
2022-11-26T09:56:03.955Z,34.80
2022-11-26T09:59:04.899Z,34.50
2022-11-26T10:01:34.766Z,35.40
2022-11-26T10:04:10.370Z,37.50
2022-11-26T10:06:40.970Z,34.70
2022-11-26T10:09:25.667Z,36.10
2022-11-26T10:12:24.667Z,37.40
2022-11-26T10:15:19.784Z,33.70
2022-11-26T10:17:58.510Z,33.60
2022-11-26T10:20:52.684Z,34.80
2022-11-26T10:25:55.345Z,36.50
2022-11-26T10:28:44.795Z,37.20
2022-11-26T10:31:27.048Z,33.60
2022-11-26T10:34:05.141Z,36.30
2022-11-26T10:36:41.912Z,34.30
2022-11-26T10:39:16.180Z,34.20
2022-11-26T10:41:45.311Z,34.90
2022-11-26T10:44:41.888Z,33.30
2022-11-26T10:47:32.975Z,34.60
2022-11-26T10:50:19.187Z,37.30
2022-11-26T10:52:53.611Z,37.90
2022-11-26T10:55:33.598Z,39.30
2022-11-26T10:58:05.900Z,38.60
2022-11-26T11:00:50.128Z,34.20
2022-11-26T11:03:33.221Z,36.10
2022-11-26T11:06:25.428Z,36.80
2022-11-26T11:08:56.691Z,39.10
2022-11-26T11:11:28.626Z,38.00
2022-11-26T11:13:58.227Z,36.20
2022-11-26T11:16:38.443Z,37.30
2022-11-26T11:19:21.905Z,37.30
2022-11-26T11:21:51.546Z,38.80
2022-11-26T11:24:27.288Z,36.10
2022-11-26T11:27:00.423Z,41.00
2022-11-26T11:29:39.295Z,39.20
2022-11-26T11:32:34.711Z,37.40
2022-11-26T11:35:19.964Z,37.60
2022-11-26T11:37:51.937Z,36.30
2022-11-26T11:40:25.558Z,39.20
2022-11-26T11:45:40.156Z,37.20
2022-11-26T11:48:26.096Z,37.30
2022-11-26T11:51:26.333Z,33.60
2022-11-26T11:54:07.793Z,39.20
2022-11-26T11:56:45.425Z,35.80
2022-11-26T11:59:59.494Z,36.20
2022-11-26T12:02:57.964Z,38.60
2022-11-26T12:05:50.115Z,41.80
2022-11-26T12:08:51.964Z,41.70
2022-11-26T12:11:37.882Z,38.30
2022-11-26T12:14:22.151Z,42.40
2022-11-26T12:16:56.951Z,43.80
2022-11-26T12:19:48.873Z,40.50
2022-11-26T12:22:30.109Z,45.00
2022-11-26T12:25:37.288Z,39.10
2022-11-26T12:28:36.736Z,40.80
2022-11-26T12:31:30.364Z,44.40
2022-11-26T12:34:14.128Z,40.60
2022-11-26T12:36:54.320Z,44.80
2022-11-26T12:39:58.466Z,47.90
2022-11-26T12:42:45.933Z,41.50
2022-11-26T12:45:30.889Z,43.00
2022-11-26T12:48:08.309Z,41.90
2022-11-26T12:50:50.160Z,43.10
2022-11-26T12:53:43.611Z,42.40
2022-11-26T12:56:52.300Z,42.70
2022-11-26T12:59:32.418Z,47.70
2022-11-26T13:02:18.436Z,49.40
2022-11-26T13:04:46.586Z,48.90
2022-11-26T13:07:33.303Z,50.40
2022-11-26T13:10:19.955Z,44.70
2022-11-26T13:13:03.980Z,47.40
2022-11-26T13:15:47.468Z,41.40
2022-11-26T13:18:28.033Z,46.10
2022-11-26T13:21:09.327Z,43.40
2022-11-26T13:24:01.633Z,47.00
2022-11-26T13:26:51.237Z,45.30
2022-11-26T13:29:56.363Z,40.40
2022-11-26T13:32:39.168Z,42.80
2022-11-26T13:35:37.414Z,41.10
2022-11-26T13:38:27.167Z,42.70
2022-11-26T13:41:41.777Z,42.70
2022-11-26T13:44:21.539Z,41.20
2022-11-26T13:47:00.566Z,41.90
2022-11-26T13:49:45.837Z,39.60
2022-11-26T13:55:36.560Z,43.70
2022-11-26T13:58:14.600Z,45.80
2022-11-26T14:00:44.943Z,47.20
2022-11-26T14:03:48.609Z,48.90
2022-11-26T14:06:16.430Z,51.00
2022-11-26T14:08:49.367Z,57.00
2022-11-26T14:11:55.736Z,77.00
2022-11-26T14:14:26.530Z,65.30
2022-11-26T14:17:16.279Z,57.60
2022-11-26T14:19:44.322Z,56.60
2022-11-26T14:22:21.303Z,63.50
2022-11-26T14:24:51.701Z,57.90
2022-11-26T14:27:29.368Z,51.80
2022-11-26T14:30:06.240Z,50.00
2022-11-26T14:32:59.673Z,52.30
2022-11-26T14:35:35.611Z,51.80
2022-11-26T14:38:07.588Z,51.40
2022-11-26T14:40:38.662Z,48.40
2022-11-26T14:43:23.714Z,45.50
2022-11-26T14:46:21.249Z,49.90
2022-11-26T14:48:52.053Z,46.00
2022-11-26T14:51:26.282Z,52.40
2022-11-26T14:53:56.940Z,53.00
2022-11-26T14:56:26.892Z,56.80
2022-11-26T14:59:00.679Z,54.00
2022-11-26T15:01:32.555Z,55.20
2022-11-26T15:04:05.203Z,59.10
2022-11-26T15:06:38.837Z,54.40
2022-11-26T15:11:58.820Z,52.30
2022-11-26T15:14:41.236Z,50.60
2022-11-26T15:17:15.908Z,55.00
2022-11-26T15:19:43.926Z,55.80
2022-11-26T15:22:39.466Z,57.00
2022-11-26T15:25:28.571Z,56.90
2022-11-26T15:28:07.478Z,56.00
2022-11-26T15:30:38.303Z,58.60
2022-11-26T15:33:09.196Z,58.40
2022-11-26T15:35:40.187Z,57.90
2022-11-26T15:38:19.993Z,61.30
2022-11-26T15:40:57.037Z,61.60
2022-11-26T15:43:29.546Z,66.50
2022-11-26T15:46:12.288Z,70.10
2022-11-26T15:48:58.547Z,75.70
2022-11-26T15:51:44.845Z,75.40
2022-11-26T15:54:30.837Z,82.20
2022-11-26T15:57:31.475Z,81.30
2022-11-26T16:00:26.868Z,83.10
2022-11-26T16:02:54.885Z,83.40
2022-11-26T16:05:35.129Z,79.80
2022-11-26T16:08:26.019Z,81.80
2022-11-26T16:11:02.897Z,89.00
2022-11-26T16:13:33.640Z,90.90
2022-11-26T16:16:17.514Z,86.80
2022-11-26T16:18:55.498Z,98.40
2022-11-26T16:21:32.965Z,89.90
2022-11-26T16:24:08.381Z,94.60
2022-11-26T16:27:06.363Z,91.90
2022-11-26T16:29:36.238Z,90.70
2022-11-26T16:32:05.781Z,94.00
2022-11-26T16:34:33.595Z,99.80
2022-11-26T16:37:17.671Z,93.00
2022-11-26T16:39:47.793Z,86.70
2022-11-26T16:42:24.158Z,90.90
2022-11-26T16:44:54.567Z,86.30
2022-11-26T16:47:29.040Z,89.50
2022-11-26T16:49:57.211Z,80.80
2022-11-26T16:52:26.477Z,78.80
2022-11-26T16:55:00.931Z,83.30
2022-11-26T16:57:28.710Z,85.40
2022-11-26T17:00:04.893Z,90.60
2022-11-26T17:02:34.931Z,93.70
2022-11-26T17:05:06.202Z,86.20
2022-11-26T17:07:40.319Z,85.00
2022-11-26T17:10:15.974Z,83.00
2022-11-26T17:12:45.850Z,85.00
2022-11-26T17:15:13.760Z,76.50
2022-11-26T17:17:43.335Z,74.90
2022-11-26T17:20:26.850Z,77.80
2022-11-26T17:22:54.622Z,67.60
2022-11-26T17:25:22.391Z,69.40
2022-11-26T17:27:50.162Z,72.90
2022-11-26T17:30:21.733Z,81.60
2022-11-26T17:32:51.147Z,84.20
2022-11-26T17:35:18.973Z,79.00
2022-11-26T17:37:46.980Z,76.30
2022-11-26T17:40:23.557Z,85.20
2022-11-26T17:42:51.385Z,77.40
2022-11-26T17:45:21.372Z,78.50
2022-11-26T17:47:50.761Z,65.90
2022-11-26T17:50:30.978Z,64.70
2022-11-26T17:52:58.779Z,65.80
2022-11-26T17:55:28.501Z,63.40
2022-11-26T17:57:58.080Z,58.50
2022-11-26T18:00:29.389Z,55.70
2022-11-26T18:03:00.467Z,54.20
2022-11-26T18:05:30.186Z,54.90
2022-11-26T18:07:59.509Z,56.90
2022-11-26T18:10:30.013Z,60.40
2022-11-26T18:12:59.915Z,61.40
2022-11-26T18:15:27.718Z,69.60
2022-11-26T18:17:57.148Z,58.50
2022-11-26T18:20:28.954Z,56.40
2022-11-26T18:23:00.713Z,57.90
2022-11-26T18:25:35.014Z,59.80
2022-11-26T18:28:02.807Z,61.50
2022-11-26T18:30:30.724Z,64.60
2022-11-26T18:32:58.604Z,64.50
2022-11-26T18:35:26.392Z,69.60
2022-11-26T18:37:54.231Z,66.70
2022-11-26T18:40:22.091Z,69.80
2022-11-26T18:42:54.469Z,77.90
2022-11-26T18:45:22.295Z,74.20
2022-11-26T18:47:54.207Z,74.30
2022-11-26T18:50:21.949Z,80.50
2022-11-26T18:52:49.706Z,90.70
2022-11-26T18:55:17.806Z,79.60
2022-11-26T18:57:45.864Z,85.90
2022-11-26T19:00:14.265Z,81.50
2022-11-26T19:02:42.068Z,84.40
2022-11-26T19:05:10.044Z,84.00
2022-11-26T19:07:37.826Z,78.90
2022-11-26T19:10:07.877Z,80.90
2022-11-26T19:12:35.703Z,75.10
2022-11-26T19:15:03.859Z,70.40
2022-11-26T19:17:31.808Z,66.00
2022-11-26T19:19:59.644Z,68.70
2022-11-26T19:22:28.840Z,66.80
2022-11-26T19:24:56.604Z,66.10
2022-11-26T19:27:24.399Z,61.40
2022-11-26T19:29:53.818Z,68.40
2022-11-26T19:32:21.643Z,73.90
2022-11-26T19:34:49.438Z,65.10
2022-11-26T19:37:17.347Z,66.00
2022-11-26T19:39:45.143Z,63.40
2022-11-26T19:42:13.103Z,61.40
2022-11-26T19:44:40.957Z,57.30
2022-11-26T19:47:08.740Z,62.00
2022-11-26T19:49:36.737Z,58.70
2022-11-26T19:52:05.012Z,51.00
2022-11-26T19:54:34.629Z,55.90
2022-11-26T19:57:02.669Z,49.00
2022-11-26T19:59:33.755Z,50.90
2022-11-26T20:02:01.920Z,49.60
2022-11-26T20:04:31.489Z,54.30
2022-11-26T20:06:59.253Z,56.30
2022-11-26T20:09:27.194Z,54.40
2022-11-26T20:11:54.949Z,57.90
2022-11-26T20:14:22.923Z,58.80
2022-11-26T20:16:50.777Z,58.90
2022-11-26T20:19:19.484Z,62.80
2022-11-26T20:21:51.434Z,63.50
2022-11-26T20:24:19.416Z,59.20
2022-11-26T20:26:49.102Z,64.20
2022-11-26T20:29:20.197Z,66.90
2022-11-26T20:31:50.594Z,64.20
2022-11-26T20:34:23.504Z,66.20
2022-11-26T20:36:55.878Z,72.00
2022-11-26T20:39:26.306Z,73.30
2022-11-26T20:41:54.106Z,83.00
2022-11-26T20:44:25.499Z,90.20
2022-11-26T20:46:53.408Z,84.40
2022-11-26T20:49:23.721Z,79.40
2022-11-26T20:51:51.635Z,72.80
2022-11-26T20:54:19.356Z,73.90
2022-11-26T20:56:47.192Z,72.30
2022-11-26T20:59:17.409Z,76.20
2022-11-26T21:01:45.464Z,78.20
2022-11-26T21:04:13.291Z,79.60
2022-11-26T21:06:45.863Z,81.60
2022-11-26T21:09:16.631Z,82.50
2022-11-26T21:11:44.709Z,75.30
2022-11-26T21:14:15.195Z,79.90
2022-11-26T21:16:45.028Z,82.40
2022-11-26T21:19:20.556Z,74.60
2022-11-26T21:21:48.638Z,81.40
2022-11-26T21:24:19.862Z,76.00
2022-11-26T21:26:47.941Z,79.10
2022-11-26T21:29:16.054Z,69.60
2022-11-26T21:31:43.905Z,72.60
2022-11-26T21:34:11.646Z,75.20
2022-11-26T21:36:39.462Z,76.10
2022-11-26T21:39:08.363Z,74.00
2022-11-26T21:41:41.582Z,77.50
2022-11-26T21:44:10.991Z,82.30
2022-11-26T21:46:43.102Z,73.50
2022-11-26T21:49:11.349Z,77.10
2022-11-26T21:51:43.429Z,68.80
2022-11-26T21:54:13.470Z,77.80
2022-11-26T21:56:41.292Z,79.10
2022-11-26T21:59:12.405Z,74.80
2022-11-26T22:01:45.402Z,78.00
2022-11-26T22:04:19.269Z,78.80
2022-11-26T22:06:51.233Z,72.50
2022-11-26T22:09:19.035Z,74.20
2022-11-26T22:11:47.108Z,71.40
2022-11-26T22:14:20.079Z,74.50
2022-11-26T22:16:52.758Z,65.70
2022-11-26T22:19:20.912Z,74.90
2022-11-26T22:21:48.741Z,68.30
2022-11-26T22:24:20.727Z,69.40
2022-11-26T22:26:50.624Z,65.30
2022-11-26T22:29:22.735Z,71.30
2022-11-26T22:31:50.736Z,80.70
2022-11-26T22:34:28.156Z,77.60
2022-11-26T22:36:56.266Z,66.70
2022-11-26T22:39:24.338Z,63.80
2022-11-26T22:41:52.269Z,65.70
2022-11-26T22:44:20.253Z,61.60
2022-11-26T22:46:48.116Z,62.00
2022-11-26T22:49:20.287Z,60.90
2022-11-26T22:51:51.550Z,64.00
2022-11-26T22:54:19.440Z,59.00
2022-11-26T22:56:47.245Z,66.00
2022-11-26T22:59:15.217Z,65.50
2022-11-26T23:01:43.023Z,58.20
2022-11-26T23:04:14.642Z,72.60
2022-11-26T23:06:42.432Z,66.70
2022-11-26T23:09:14.741Z,64.50
2022-11-26T23:11:46.301Z,61.00
2022-11-26T23:14:14.239Z,66.10
2022-11-26T23:16:46.158Z,62.70
2022-11-26T23:19:18.347Z,64.40
2022-11-26T23:21:48.646Z,66.40
2022-11-26T23:24:19.807Z,62.40
2022-11-26T23:26:47.669Z,65.40
2022-11-26T23:29:15.756Z,64.50
2022-11-26T23:31:50.748Z,64.40
2022-11-26T23:34:18.538Z,65.00
2022-11-26T23:36:46.446Z,62.80
2022-11-26T23:39:14.304Z,63.60
2022-11-26T23:41:43.259Z,67.70
2022-11-26T23:44:11.054Z,66.60
2022-11-26T23:46:38.936Z,65.10
2022-11-26T23:49:10.732Z,62.10
2022-11-26T23:51:38.468Z,73.50
2022-11-26T23:54:06.249Z,66.60
2022-11-26T23:56:37.741Z,69.60
2022-11-26T23:59:09.148Z,68.00
